Flight Track Log - Related Links

Times and Time Zones

All times are in EDT time to prevent confusion due to time zone crossing. See the LBQ652 flight status page for this flight to view local times or setup timezone preferences in your user account.

Time Position Orientation Groundspeed Altitude Reporting Facility
EDT Latitude Longitude Course Direction KTS MPH feet Rate Location/Type
Fri 11:36:11 PM 40.3572 -76.0197 259° West 196 226 5,500  Level New York Center
Fri 11:37:11 PM 40.3636 -76.1100 275° West 246 283 7,000 1,744 Climbing New York Center
Fri 11:38:08 PM 40.3500 -76.2289 261° West 289 333 8,900 1,729 Climbing New York Center
Fri 11:39:09 PM 40.3392 -76.3261 262° West 304 350 10,400 1,686 Climbing New York Center
Fri 11:40:00 PM 40.5224 -76.4727 288° West  Level FlightAware Approximate
Fri 11:40:09 PM 40.3253 -76.4447 261° West 304 350 12,300  Level New York Center
Fri 11:41:00 PM 40.5070 -76.5811 259° West  Level Estimated
Fri 11:41:11 PM 40.3144 -76.5392 261° West 309 356 13,800  Level New York Center
Fri 11:42:09 PM 40.2833 -76.6617 252° West 315 362 15,600 1,780 Climbing New York Center
Fri 11:43:09 PM 40.2569 -76.7683 252° West 315 362 17,300 1,426 Climbing New York Center
Fri 11:44:11 PM 40.2306 -76.8803 253° West 320 368 18,500 1,328 Climbing New York Center
Fri 11:45:11 PM 40.2039 -76.9919 253° West 320 368 20,000 1,475 Climbing New York Center
Fri 11:46:09 PM 40.1747 -77.1089 252° West 326 375 21,400 1,475 Climbing New York Center
Fri 11:47:09 PM 40.1494 -77.2264 254° West 338 389 22,900 1,385 Climbing New York Center
Fri 11:49:24 PM 40.0875 -77.4867 253° West 346 398 25,900 1,292 Climbing Cleveland Center
Fri 11:50:24 PM 40.0594 -77.6019 252° West 346 398 27,100 1,200 Climbing Cleveland Center
Fri 11:51:24 PM 40.0311 -77.7169 252° West 346 398 28,300 1,150 Climbing Cleveland Center
Fri 11:52:24 PM 40.0028 -77.8347 253° West 346 398 29,400 850 Climbing Cleveland Center
Fri 11:53:24 PM 39.9722 -77.9497 251° West 346 398 30,000 300 Climbing Cleveland Center
Fri 11:54:24 PM 39.9606 -78.0803 263° West 358 412 30,000  Level Cleveland Center
Fri 11:55:24 PM 39.9467 -78.2164 262° West 370 426 30,000  Level Cleveland Center
Fri 11:56:24 PM 39.9267 -78.3578 260° West 387 445 30,000  Level Cleveland Center
Fri 11:57:24 PM 39.9144 -78.4936 263° West 392 451 30,000  Level Cleveland Center
Fri 11:58:24 PM 39.8983 -78.6319 261° West 392 451 30,000  Level Cleveland Center
Fri 11:59:24 PM 39.8817 -78.7706 261° West 392 451 30,000  Level Cleveland Center
Sat 12:00:24 AM 39.8650 -78.9061 261° West 392 451 30,000  Level Cleveland Center
Sat 12:01:23 AM 39.8544 -79.0336 264° West 392 451 30,000  Level Cleveland Center
Sat 12:02:24 AM 39.8394 -79.1717 262° West 392 451 30,000  Level Cleveland Center
Sat 12:03:24 AM 39.8225 -79.3100 261° West 392 451 30,000  Level Cleveland Center
Sat 12:04:23 AM 39.8072 -79.4508 262° West 392 451 30,000  Level Cleveland Center
Sat 12:05:24 AM 39.7897 -79.5861 260° West 387 445 30,000  Level Cleveland Center
Sat 12:06:24 AM 39.7742 -79.7242 262° West 387 445 30,000  Level Cleveland Center
Sat 12:07:24 AM 39.7583 -79.8619 262° West 387 445 30,000  Level Cleveland Center
Sat 12:08:23 AM 39.7406 -80.0000 261° West 387 445 30,000  Level Cleveland Center
Sat 12:09:24 AM 39.7244 -80.1350 261° West 387 445 30,000  Level Cleveland Center
Sat 12:10:23 AM 39.7083 -80.2728 261° West 387 445 30,000  Level Cleveland Center
Sat 12:11:24 AM 39.6897 -80.4103 260° West 392 451 30,000  Level Cleveland Center
Sat 12:13:09 AM 39.6553 -80.6522 260° West 386 444 30,000  Level Indianapolis Center
Sat 12:14:09 AM 39.6383 -80.7883 261° West 383 441 30,000  Level Indianapolis Center
Sat 12:15:10 AM 39.6197 -80.9247 260° West 384 442 30,000  Level Indianapolis Center
Sat 12:16:11 AM 39.6019 -81.0617 260° West 385 443 30,000  Level Indianapolis Center
Sat 12:17:12 AM 39.5831 -81.1975 260° West 385 443 30,000  Level Indianapolis Center
Sat 12:18:12 AM 39.5647 -81.3364 260° West 391 450 30,000  Level Indianapolis Center
Sat 12:19:13 AM 39.5458 -81.4719 260° West 385 443 30,000  Level Indianapolis Center
Sat 12:20:14 AM 39.5281 -81.6100 261° West 390 449 30,000  Level Indianapolis Center
Sat 12:21:14 AM 39.5050 -81.7725 260° West 384 442 30,000  Level Indianapolis Center
Sat 12:22:15 AM 39.4853 -81.9097 259° West 388 447 30,000  Level Indianapolis Center
Sat 12:23:16 AM 39.4658 -82.0467 260° West 388 447 30,000  Level Indianapolis Center
Sat 12:24:17 AM 39.4467 -82.1811 260° West 386 444 30,000  Level Indianapolis Center
Sat 12:25:17 AM 39.4272 -82.3200 260° West 389 448 30,000  Level Indianapolis Center
Sat 12:26:18 AM 39.4075 -82.4569 259° West 389 448 30,000 -393 Level Indianapolis Center
Sat 12:27:19 AM 39.3850 -82.6028 259° West 400 460 29,200 -1,339 Descending Indianapolis Center
Sat 12:28:19 AM 39.3636 -82.7481 259° West 407 468 27,300 -1,884 Descending Indianapolis Center
Sat 12:29:20 AM 39.3422 -82.8936 259° West 409 471 25,400 -1,869 Descending Indianapolis Center
Sat 12:30:21 AM 39.3206 -83.0400 259° West 409 471 23,500 -1,884 Descending Indianapolis Center
Sat 12:31:21 AM 39.2981 -83.1856 259° West 408 470 21,600 -1,835 Descending Indianapolis Center
Sat 12:32:22 AM 39.2775 -83.3219 259° West 387 445 19,800 -1,736 Descending Indianapolis Center
Sat 12:33:22 AM 39.2561 -83.4508 258° West 367 422 18,100 -1,587 Descending Indianapolis Center
Sat 12:34:23 AM 39.2389 -83.5742 260° West 348 400 16,600 -1,525 Descending Indianapolis Center
Sat 12:35:24 AM 39.2197 -83.6933 258° West 338 389 15,000 -1,537 Descending Indianapolis Center
Sat 12:36:24 AM 39.2014 -83.8103 259° West 329 379 13,500 -1,537 Descending Indianapolis Center
Sat 12:37:25 AM 39.1828 -83.9275 258° West 329 379 11,900 -1,488 Descending Indianapolis Center
Sat 12:38:25 AM 39.1675 -84.0236 258° West 327 376 10,500 -1,983 Descending Indianapolis Center
Sat 12:39:26 AM 39.1503 -84.1292 258° West 303 349 7,900 -2,727 Descending Indianapolis Center
Sat 12:40:26 AM 39.1425 -84.2267 264° West 279 321 5,000 -2,380 Descending Indianapolis Center
Sat 12:41:27 AM 39.1442 -84.3164 271° West 270 311 3,100 -1,869 Descending Indianapolis Center
Sat 12:43:00 AM 39.1000 -84.4167 270° West  Level FlightAware Approximate
Sat 12:50:00 AM 39.1033 -84.4186 270° West  Level Estimated
Sat 12:51:00 AM 39.1000 -84.4167 270° West  Level FlightAware Approximate

Login

Don't have an account? Register now (free) for customized features, flight alerts, and more!